ZPO weather

Pinehouse Lake Airport
Pinehouse Lake, Saskatchewan, Canada

Public forecast

Using degrees Celsius for public forecast. Weather courtesy of forecast.io.

METAR (pilot weather report)

Closest report is La Ronge Airport, 50.4 nm (93.4 km) ESE. Retrieved 2019/04/18 23:00 UTC (59 minutes ago):

CYVC 182300Z 24010KT 15SM SCT084 BKN140 15/M01 A2984 RMK AC3AC4 SLP118 DENSITY ALT 1600FT

TAF (pilot weather forecast)

Closest forecast is La Ronge Airport, 50.4 nm (93.4 km) ESE. Retrieved 2019/04/18 19:42 UTC (4 hours ago):

TAF CYVC 181838Z 1819/1907 26008KT P6SM SCT040 SCT250 TEMPO 1820/1903 P6SM -SHRA BKN040 BKN250 BECMG 1822/1824 23006KT FM190300 20006KT P6SM BKN060 FM190600 21008KT P6SM FEW060 RMK NXT FCST BY 190100Z